sensor_id;sensor_type;location;lat;lon;timestamp;P1;durP1;ratioP1;P2;durP2;ratioP2
16512;SDS011;8369;48.030;11.598;2023-03-05T00:01:15;27.50;;;14.80;;
16512;SDS011;8369;48.030;11.598;2023-03-05T00:03:49;25.27;;;13.87;;
16512;SDS011;8369;48.030;11.598;2023-03-05T00:06:20;30.67;;;14.57;;
16512;SDS011;8369;48.030;11.598;2023-03-05T00:08:48;28.20;;;13.57;;
16512;SDS011;8369;48.030;11.598;2023-03-05T00:11:15;24.93;;;13.83;;
16512;SDS011;8369;48.030;11.598;2023-03-05T00:13:41;28.43;;;14.60;;
16512;SDS011;8369;48.030;11.598;2023-03-05T00:16:09;26.47;;;14.33;;
16512;SDS011;8369;48.030;11.598;2023-03-05T00:18:37;27.47;;;14.93;;
16512;SDS011;8369;48.030;11.598;2023-03-05T00:21:03;28.70;;;15.13;;
16512;SDS011;8369;48.030;11.598;2023-03-05T00:23:30;23.23;;;14.17;;
16512;SDS011;8369;48.030;11.598;2023-03-05T00:26:01;26.87;;;14.30;;
16512;SDS011;8369;48.030;11.598;2023-03-05T00:28:29;28.10;;;13.67;;
16512;SDS011;8369;48.030;11.598;2023-03-05T00:30:58;25.90;;;14.33;;
16512;SDS011;8369;48.030;11.598;2023-03-05T00:33:25;23.57;;;13.80;;
16512;SDS011;8369;48.030;11.598;2023-03-05T00:35:52;25.27;;;14.10;;
16512;SDS011;8369;48.030;11.598;2023-03-05T00:38:18;28.03;;;14.03;;
16512;SDS011;8369;48.030;11.598;2023-03-05T00:40:44;20.57;;;12.50;;
16512;SDS011;8369;48.030;11.598;2023-03-05T00:43:10;26.90;;;14.63;;
16512;SDS011;8369;48.030;11.598;2023-03-05T00:45:36;30.60;;;14.17;;
16512;SDS011;8369;48.030;11.598;2023-03-05T00:48:03;24.97;;;13.30;;
16512;SDS011;8369;48.030;11.598;2023-03-05T00:50:29;25.47;;;14.03;;
16512;SDS011;8369;48.030;11.598;2023-03-05T00:52:55;28.13;;;14.37;;
16512;SDS011;8369;48.030;11.598;2023-03-05T00:55:21;26.40;;;14.13;;
16512;SDS011;8369;48.030;11.598;2023-03-05T00:57:47;28.10;;;13.67;;
16512;SDS011;8369;48.030;11.598;2023-03-05T01:00:13;23.97;;;13.27;;
16512;SDS011;8369;48.030;11.598;2023-03-05T01:02:40;34.93;;;15.07;;
16512;SDS011;8369;48.030;11.598;2023-03-05T01:05:06;28.17;;;14.67;;
16512;SDS011;8369;48.030;11.598;2023-03-05T01:07:35;28.10;;;14.70;;
16512;SDS011;8369;48.030;11.598;2023-03-05T01:10:01;27.87;;;14.07;;
16512;SDS011;8369;48.030;11.598;2023-03-05T01:12:28;26.10;;;13.03;;
16512;SDS011;8369;48.030;11.598;2023-03-05T01:14:53;25.90;;;14.33;;
16512;SDS011;8369;48.030;11.598;2023-03-05T01:17:19;32.57;;;14.63;;
16512;SDS011;8369;48.030;11.598;2023-03-05T01:19:45;24.97;;;14.07;;
16512;SDS011;8369;48.030;11.598;2023-03-05T01:22:11;29.83;;;14.27;;
16512;SDS011;8369;48.030;11.598;2023-03-05T01:24:37;27.27;;;14.90;;
16512;SDS011;8369;48.030;11.598;2023-03-05T01:27:03;29.10;;;15.53;;
16512;SDS011;8369;48.030;11.598;2023-03-05T01:29:29;32.00;;;15.37;;
16512;SDS011;8369;48.030;11.598;2023-03-05T01:31:56;27.07;;;14.07;;
16512;SDS011;8369;48.030;11.598;2023-03-05T01:34:22;33.70;;;14.20;;
16512;SDS011;8369;48.030;11.598;2023-03-05T01:36:48;30.63;;;15.43;;
16512;SDS011;8369;48.030;11.598;2023-03-05T01:39:16;33.10;;;15.90;;
16512;SDS011;8369;48.030;11.598;2023-03-05T01:41:43;27.60;;;14.73;;
16512;SDS011;8369;48.030;11.598;2023-03-05T01:44:22;31.33;;;14.87;;
16512;SDS011;8369;48.030;11.598;2023-03-05T01:46:50;27.77;;;14.50;;
16512;SDS011;8369;48.030;11.598;2023-03-05T01:49:21;30.30;;;14.57;;
16512;SDS011;8369;48.030;11.598;2023-03-05T01:54:39;30.57;;;14.57;;
16512;SDS011;8369;48.030;11.598;2023-03-05T01:57:34;34.97;;;15.53;;
16512;SDS011;8369;48.030;11.598;2023-03-05T02:00:07;32.30;;;14.63;;
16512;SDS011;8369;48.030;11.598;2023-03-05T02:02:35;36.70;;;15.87;;
16512;SDS011;8369;48.030;11.598;2023-03-05T02:05:44;34.15;;;14.75;;
16512;SDS011;8369;48.030;11.598;2023-03-05T02:07:58;38.60;;;15.80;;
16512;SDS011;8369;48.030;11.598;2023-03-05T02:10:26;34.53;;;15.13;;
16512;SDS011;8369;48.030;11.598;2023-03-05T02:12:55;30.53;;;15.50;;
16512;SDS011;8369;48.030;11.598;2023-03-05T02:15:23;35.73;;;16.53;;
16512;SDS011;8369;48.030;11.598;2023-03-05T02:17:49;33.50;;;16.27;;
16512;SDS011;8369;48.030;11.598;2023-03-05T02:20:18;39.40;;;17.30;;
16512;SDS011;8369;48.030;11.598;2023-03-05T02:22:48;34.53;;;15.83;;
16512;SDS011;8369;48.030;11.598;2023-03-05T02:27:43;35.33;;;16.73;;
16512;SDS011;8369;48.030;11.598;2023-03-05T02:30:26;33.67;;;17.23;;
16512;SDS011;8369;48.030;11.598;2023-03-05T02:32:53;68.30;;;28.83;;
16512;SDS011;8369;48.030;11.598;2023-03-05T02:35:19;54.90;;;24.67;;
16512;SDS011;8369;48.030;11.598;2023-03-05T02:37:45;39.53;;;20.07;;
16512;SDS011;8369;48.030;11.598;2023-03-05T02:40:12;34.93;;;16.20;;
16512;SDS011;8369;48.030;11.598;2023-03-05T02:42:39;34.47;;;15.80;;
16512;SDS011;8369;48.030;11.598;2023-03-05T02:45:05;30.67;;;15.67;;
16512;SDS011;8369;48.030;11.598;2023-03-05T02:47:32;36.83;;;16.30;;
16512;SDS011;8369;48.030;11.598;2023-03-05T02:49:58;38.20;;;17.00;;
16512;SDS011;8369;48.030;11.598;2023-03-05T02:52:24;33.77;;;16.33;;
16512;SDS011;8369;48.030;11.598;2023-03-05T02:54:51;36.77;;;16.63;;
16512;SDS011;8369;48.030;11.598;2023-03-05T02:57:17;32.73;;;16.10;;
16512;SDS011;8369;48.030;11.598;2023-03-05T02:59:44;36.70;;;16.67;;
16512;SDS011;8369;48.030;11.598;2023-03-05T03:02:11;38.60;;;17.13;;
16512;SDS011;8369;48.030;11.598;2023-03-05T03:04:38;30.93;;;16.37;;
16512;SDS011;8369;48.030;11.598;2023-03-05T03:07:05;39.33;;;18.67;;
16512;SDS011;8369;48.030;11.598;2023-03-05T03:09:32;34.57;;;16.57;;
16512;SDS011;8369;48.030;11.598;2023-03-05T03:12:00;42.43;;;18.43;;
16512;SDS011;8369;48.030;11.598;2023-03-05T03:14:29;36.97;;;16.93;;
16512;SDS011;8369;48.030;11.598;2023-03-05T03:16:57;37.37;;;16.27;;
16512;SDS011;8369;48.030;11.598;2023-03-05T03:19:23;39.33;;;16.30;;
16512;SDS011;8369;48.030;11.598;2023-03-05T03:21:49;37.10;;;17.57;;
16512;SDS011;8369;48.030;11.598;2023-03-05T03:24:16;34.77;;;16.60;;
16512;SDS011;8369;48.030;11.598;2023-03-05T03:26:42;34.90;;;16.27;;
16512;SDS011;8369;48.030;11.598;2023-03-05T03:29:08;41.90;;;16.90;;
16512;SDS011;8369;48.030;11.598;2023-03-05T03:31:34;38.40;;;18.10;;
16512;SDS011;8369;48.030;11.598;2023-03-05T03:34:00;33.87;;;15.53;;
16512;SDS011;8369;48.030;11.598;2023-03-05T03:36:26;35.57;;;15.63;;
16512;SDS011;8369;48.030;11.598;2023-03-05T03:38:53;34.40;;;15.93;;
16512;SDS011;8369;48.030;11.598;2023-03-05T03:44:22;34.37;;;16.63;;
16512;SDS011;8369;48.030;11.598;2023-03-05T03:46:49;32.53;;;15.77;;
16512;SDS011;8369;48.030;11.598;2023-03-05T03:49:16;37.47;;;17.00;;
16512;SDS011;8369;48.030;11.598;2023-03-05T03:51:48;34.90;;;16.03;;
16512;SDS011;8369;48.030;11.598;2023-03-05T03:54:16;40.23;;;16.80;;
16512;SDS011;8369;48.030;11.598;2023-03-05T03:56:43;38.63;;;16.97;;
16512;SDS011;8369;48.030;11.598;2023-03-05T03:59:09;33.47;;;17.60;;
16512;SDS011;8369;48.030;11.598;2023-03-05T04:01:36;37.73;;;17.53;;
16512;SDS011;8369;48.030;11.598;2023-03-05T04:04:03;36.20;;;16.70;;
16512;SDS011;8369;48.030;11.598;2023-03-05T04:06:30;38.23;;;16.67;;
16512;SDS011;8369;48.030;11.598;2023-03-05T04:08:57;34.80;;;17.40;;
16512;SDS011;8369;48.030;11.598;2023-03-05T04:11:24;32.40;;;15.33;;
16512;SDS011;8369;48.030;11.598;2023-03-05T04:13:50;39.37;;;16.53;;
16512;SDS011;8369;48.030;11.598;2023-03-05T04:16:17;40.23;;;17.87;;
16512;SDS011;8369;48.030;11.598;2023-03-05T04:18:43;41.07;;;19.20;;
16512;SDS011;8369;48.030;11.598;2023-03-05T04:21:10;34.50;;;16.40;;
16512;SDS011;8369;48.030;11.598;2023-03-05T04:23:38;36.73;;;16.97;;
16512;SDS011;8369;48.030;11.598;2023-03-05T04:26:04;35.40;;;17.23;;
16512;SDS011;8369;48.030;11.598;2023-03-05T04:28:31;33.83;;;17.10;;
16512;SDS011;8369;48.030;11.598;2023-03-05T04:30:58;31.40;;;15.97;;
16512;SDS011;8369;48.030;11.598;2023-03-05T04:33:24;33.03;;;16.17;;
16512;SDS011;8369;48.030;11.598;2023-03-05T04:35:50;33.77;;;15.57;;
16512;SDS011;8369;48.030;11.598;2023-03-05T04:38:17;34.63;;;16.07;;
16512;SDS011;8369;48.030;11.598;2023-03-05T04:40:43;30.40;;;14.77;;
16512;SDS011;8369;48.030;11.598;2023-03-05T04:43:16;33.40;;;15.17;;
16512;SDS011;8369;48.030;11.598;2023-03-05T04:45:43;30.03;;;15.00;;
16512;SDS011;8369;48.030;11.598;2023-03-05T04:51:16;32.77;;;15.33;;
16512;SDS011;8369;48.030;11.598;2023-03-05T04:53:43;29.40;;;14.87;;
16512;SDS011;8369;48.030;11.598;2023-03-05T04:56:25;30.80;;;15.00;;
16512;SDS011;8369;48.030;11.598;2023-03-05T04:58:52;30.50;;;15.13;;
16512;SDS011;8369;48.030;11.598;2023-03-05T05:01:18;30.77;;;14.97;;
16512;SDS011;8369;48.030;11.598;2023-03-05T05:03:45;32.23;;;15.83;;
16512;SDS011;8369;48.030;11.598;2023-03-05T05:06:11;38.17;;;16.03;;
16512;SDS011;8369;48.030;11.598;2023-03-05T05:08:38;34.47;;;14.83;;
16512;SDS011;8369;48.030;11.598;2023-03-05T05:11:05;34.80;;;16.13;;
16512;SDS011;8369;48.030;11.598;2023-03-05T05:13:33;26.83;;;13.40;;
16512;SDS011;8369;48.030;11.598;2023-03-05T05:15:59;30.80;;;14.50;;
16512;SDS011;8369;48.030;11.598;2023-03-05T05:18:26;28.83;;;14.63;;
16512;SDS011;8369;48.030;11.598;2023-03-05T05:20:52;31.70;;;15.20;;
16512;SDS011;8369;48.030;11.598;2023-03-05T05:23:18;30.77;;;14.87;;
16512;SDS011;8369;48.030;11.598;2023-03-05T05:25:44;29.00;;;13.80;;
16512;SDS011;8369;48.030;11.598;2023-03-05T05:28:11;33.77;;;15.23;;
16512;SDS011;8369;48.030;11.598;2023-03-05T05:30:37;32.67;;;15.43;;
16512;SDS011;8369;48.030;11.598;2023-03-05T05:33:03;29.63;;;13.97;;
16512;SDS011;8369;48.030;11.598;2023-03-05T05:35:30;30.70;;;15.23;;
16512;SDS011;8369;48.030;11.598;2023-03-05T05:37:56;26.77;;;13.53;;
16512;SDS011;8369;48.030;11.598;2023-03-05T05:40:22;25.67;;;13.80;;
16512;SDS011;8369;48.030;11.598;2023-03-05T05:42:48;30.93;;;15.87;;
16512;SDS011;8369;48.030;11.598;2023-03-05T05:45:14;29.73;;;13.73;;
16512;SDS011;8369;48.030;11.598;2023-03-05T05:47:41;28.37;;;14.13;;
16512;SDS011;8369;48.030;11.598;2023-03-05T05:50:08;29.00;;;14.20;;
16512;SDS011;8369;48.030;11.598;2023-03-05T05:52:35;32.83;;;14.10;;
16512;SDS011;8369;48.030;11.598;2023-03-05T05:55:02;32.03;;;14.47;;
16512;SDS011;8369;48.030;11.598;2023-03-05T05:57:28;23.73;;;13.10;;
16512;SDS011;8369;48.030;11.598;2023-03-05T05:59:55;26.10;;;12.10;;
16512;SDS011;8369;48.030;11.598;2023-03-05T06:02:22;29.27;;;13.97;;
16512;SDS011;8369;48.030;11.598;2023-03-05T06:04:49;22.97;;;11.77;;
16512;SDS011;8369;48.030;11.598;2023-03-05T06:07:15;31.67;;;14.03;;
16512;SDS011;8369;48.030;11.598;2023-03-05T06:09:45;31.00;;;13.30;;
16512;SDS011;8369;48.030;11.598;2023-03-05T06:12:12;24.43;;;13.23;;
16512;SDS011;8369;48.030;11.598;2023-03-05T06:14:38;29.17;;;13.17;;
16512;SDS011;8369;48.030;11.598;2023-03-05T06:17:04;25.50;;;11.80;;
16512;SDS011;8369;48.030;11.598;2023-03-05T06:19:31;19.63;;;11.20;;
16512;SDS011;8369;48.030;11.598;2023-03-05T06:21:57;25.20;;;12.93;;
16512;SDS011;8369;48.030;11.598;2023-03-05T06:24:23;25.03;;;12.50;;
16512;SDS011;8369;48.030;11.598;2023-03-05T06:26:49;24.03;;;12.33;;
16512;SDS011;8369;48.030;11.598;2023-03-05T06:29:16;23.37;;;11.77;;
16512;SDS011;8369;48.030;11.598;2023-03-05T06:31:43;23.53;;;11.80;;
16512;SDS011;8369;48.030;11.598;2023-03-05T06:34:09;22.73;;;11.60;;
16512;SDS011;8369;48.030;11.598;2023-03-05T06:36:36;22.70;;;12.00;;
16512;SDS011;8369;48.030;11.598;2023-03-05T06:39:03;24.23;;;11.73;;
16512;SDS011;8369;48.030;11.598;2023-03-05T06:41:30;24.77;;;12.10;;
16512;SDS011;8369;48.030;11.598;2023-03-05T06:43:57;23.53;;;12.00;;
16512;SDS011;8369;48.030;11.598;2023-03-05T06:46:29;25.23;;;12.53;;
16512;SDS011;8369;48.030;11.598;2023-03-05T06:48:58;24.93;;;11.80;;
16512;SDS011;8369;48.030;11.598;2023-03-05T06:51:28;23.53;;;12.67;;
16512;SDS011;8369;48.030;11.598;2023-03-05T06:54:16;20.47;;;10.90;;
16512;SDS011;8369;48.030;11.598;2023-03-05T06:56:44;21.60;;;11.03;;
16512;SDS011;8369;48.030;11.598;2023-03-05T06:59:12;20.93;;;10.87;;
16512;SDS011;8369;48.030;11.598;2023-03-05T07:01:39;23.27;;;10.73;;
16512;SDS011;8369;48.030;11.598;2023-03-05T07:04:08;23.17;;;11.00;;
16512;SDS011;8369;48.030;11.598;2023-03-05T07:06:37;26.50;;;11.83;;
16512;SDS011;8369;48.030;11.598;2023-03-05T07:09:03;29.47;;;12.00;;
16512;SDS011;8369;48.030;11.598;2023-03-05T07:11:31;23.83;;;10.90;;
16512;SDS011;8369;48.030;11.598;2023-03-05T07:13:59;24.47;;;11.53;;
16512;SDS011;8369;48.030;11.598;2023-03-05T07:16:26;21.67;;;10.60;;
16512;SDS011;8369;48.030;11.598;2023-03-05T07:18:56;21.10;;;11.30;;
16512;SDS011;8369;48.030;11.598;2023-03-05T07:21:24;19.00;;;10.67;;
16512;SDS011;8369;48.030;11.598;2023-03-05T07:23:53;22.93;;;10.90;;
16512;SDS011;8369;48.030;11.598;2023-03-05T07:26:26;22.47;;;9.50;;
16512;SDS011;8369;48.030;11.598;2023-03-05T07:28:53;19.27;;;10.37;;
16512;SDS011;8369;48.030;11.598;2023-03-05T07:31:21;24.27;;;9.80;;
16512;SDS011;8369;48.030;11.598;2023-03-05T07:33:51;19.17;;;9.83;;
16512;SDS011;8369;48.030;11.598;2023-03-05T07:36:17;19.37;;;11.10;;
16512;SDS011;8369;48.030;11.598;2023-03-05T07:38:44;22.67;;;10.53;;
16512;SDS011;8369;48.030;11.598;2023-03-05T07:41:12;25.67;;;11.87;;
16512;SDS011;8369;48.030;11.598;2023-03-05T07:43:44;20.47;;;10.57;;
16512;SDS011;8369;48.030;11.598;2023-03-05T07:46:11;22.63;;;10.47;;
16512;SDS011;8369;48.030;11.598;2023-03-05T07:48:44;25.33;;;12.30;;
16512;SDS011;8369;48.030;11.598;2023-03-05T07:51:12;20.57;;;10.63;;
16512;SDS011;8369;48.030;11.598;2023-03-05T07:53:41;18.43;;;9.83;;
16512;SDS011;8369;48.030;11.598;2023-03-05T07:56:08;20.17;;;10.40;;
16512;SDS011;8369;48.030;11.598;2023-03-05T07:58:35;23.00;;;10.70;;
16512;SDS011;8369;48.030;11.598;2023-03-05T08:01:02;22.97;;;11.93;;
16512;SDS011;8369;48.030;11.598;2023-03-05T08:03:28;22.70;;;11.07;;
16512;SDS011;8369;48.030;11.598;2023-03-05T08:05:55;21.63;;;10.37;;
16512;SDS011;8369;48.030;11.598;2023-03-05T08:08:21;21.47;;;10.30;;
16512;SDS011;8369;48.030;11.598;2023-03-05T08:10:48;18.17;;;9.90;;
16512;SDS011;8369;48.030;11.598;2023-03-05T08:13:14;19.27;;;10.77;;
16512;SDS011;8369;48.030;11.598;2023-03-05T08:15:40;22.83;;;11.20;;
16512;SDS011;8369;48.030;11.598;2023-03-05T08:18:08;20.97;;;10.53;;
16512;SDS011;8369;48.030;11.598;2023-03-05T08:20:34;19.50;;;10.60;;
16512;SDS011;8369;48.030;11.598;2023-03-05T08:23:02;20.00;;;10.17;;
16512;SDS011;8369;48.030;11.598;2023-03-05T08:25:29;22.13;;;10.80;;
16512;SDS011;8369;48.030;11.598;2023-03-05T08:27:56;19.83;;;9.83;;
16512;SDS011;8369;48.030;11.598;2023-03-05T08:30:23;18.37;;;10.50;;
16512;SDS011;8369;48.030;11.598;2023-03-05T08:32:51;18.47;;;9.90;;
16512;SDS011;8369;48.030;11.598;2023-03-05T08:35:18;18.17;;;9.17;;
16512;SDS011;8369;48.030;11.598;2023-03-05T08:37:45;19.77;;;9.60;;
16512;SDS011;8369;48.030;11.598;2023-03-05T08:40:12;20.30;;;9.97;;
16512;SDS011;8369;48.030;11.598;2023-03-05T08:42:38;21.63;;;10.37;;
16512;SDS011;8369;48.030;11.598;2023-03-05T08:45:05;17.13;;;10.03;;
16512;SDS011;8369;48.030;11.598;2023-03-05T08:47:32;17.07;;;8.47;;
16512;SDS011;8369;48.030;11.598;2023-03-05T08:49:58;18.50;;;10.17;;
16512;SDS011;8369;48.030;11.598;2023-03-05T08:52:24;20.13;;;10.13;;
16512;SDS011;8369;48.030;11.598;2023-03-05T08:54:51;19.53;;;9.43;;
16512;SDS011;8369;48.030;11.598;2023-03-05T08:57:17;16.60;;;9.13;;
16512;SDS011;8369;48.030;11.598;2023-03-05T08:59:43;18.70;;;9.60;;
16512;SDS011;8369;48.030;11.598;2023-03-05T09:02:13;16.60;;;9.27;;
16512;SDS011;8369;48.030;11.598;2023-03-05T09:04:40;19.37;;;9.50;;
16512;SDS011;8369;48.030;11.598;2023-03-05T09:07:07;18.13;;;9.80;;
16512;SDS011;8369;48.030;11.598;2023-03-05T09:09:33;18.53;;;10.47;;
16512;SDS011;8369;48.030;11.598;2023-03-05T09:12:01;20.33;;;9.83;;
16512;SDS011;8369;48.030;11.598;2023-03-05T09:14:27;18.03;;;9.47;;
16512;SDS011;8369;48.030;11.598;2023-03-05T09:16:54;20.13;;;11.20;;
16512;SDS011;8369;48.030;11.598;2023-03-05T09:19:21;22.07;;;10.67;;
16512;SDS011;8369;48.030;11.598;2023-03-05T09:21:47;19.67;;;9.80;;
16512;SDS011;8369;48.030;11.598;2023-03-05T09:24:13;18.90;;;9.70;;
16512;SDS011;8369;48.030;11.598;2023-03-05T09:26:39;17.87;;;10.00;;
16512;SDS011;8369;48.030;11.598;2023-03-05T09:29:06;24.70;;;10.73;;
16512;SDS011;8369;48.030;11.598;2023-03-05T09:31:34;18.33;;;10.10;;
16512;SDS011;8369;48.030;11.598;2023-03-05T09:34:01;20.13;;;10.00;;
16512;SDS011;8369;48.030;11.598;2023-03-05T09:36:29;22.63;;;10.73;;
16512;SDS011;8369;48.030;11.598;2023-03-05T09:38:56;19.07;;;10.43;;
16512;SDS011;8369;48.030;11.598;2023-03-05T09:46:52;20.33;;;10.03;;
16512;SDS011;8369;48.030;11.598;2023-03-05T09:49:32;20.77;;;10.27;;
16512;SDS011;8369;48.030;11.598;2023-03-05T09:52:33;19.00;;;10.00;;
16512;SDS011;8369;48.030;11.598;2023-03-05T09:55:19;18.37;;;10.33;;
16512;SDS011;8369;48.030;11.598;2023-03-05T09:57:51;20.03;;;10.40;;
16512;SDS011;8369;48.030;11.598;2023-03-05T10:02:53;18.63;;;9.97;;
16512;SDS011;8369;48.030;11.598;2023-03-05T10:05:28;17.30;;;9.47;;
16512;SDS011;8369;48.030;11.598;2023-03-05T10:08:23;19.87;;;9.63;;
16512;SDS011;8369;48.030;11.598;2023-03-05T10:10:56;14.37;;;8.40;;
16512;SDS011;8369;48.030;11.598;2023-03-05T10:13:37;17.63;;;9.33;;
16512;SDS011;8369;48.030;11.598;2023-03-05T10:21:56;17.73;;;9.20;;
16512;SDS011;8369;48.030;11.598;2023-03-05T10:24:50;14.77;;;8.60;;
16512;SDS011;8369;48.030;11.598;2023-03-05T10:27:32;13.83;;;7.80;;
16512;SDS011;8369;48.030;11.598;2023-03-05T10:36:07;13.87;;;7.93;;
16512;SDS011;8369;48.030;11.598;2023-03-05T10:41:15;16.43;;;9.20;;
16512;SDS011;8369;48.030;11.598;2023-03-05T10:43:59;18.67;;;9.13;;
16512;SDS011;8369;48.030;11.598;2023-03-05T10:46:35;16.83;;;8.50;;
16512;SDS011;8369;48.030;11.598;2023-03-05T10:49:05;17.00;;;8.53;;
16512;SDS011;8369;48.030;11.598;2023-03-05T10:51:55;16.73;;;9.27;;
16512;SDS011;8369;48.030;11.598;2023-03-05T10:54:46;17.40;;;9.10;;
16512;SDS011;8369;48.030;11.598;2023-03-05T11:02:25;20.83;;;9.50;;
16512;SDS011;8369;48.030;11.598;2023-03-05T11:04:52;17.77;;;9.47;;
16512;SDS011;8369;48.030;11.598;2023-03-05T11:12:29;20.33;;;9.93;;
16512;SDS011;8369;48.030;11.598;2023-03-05T11:17:41;16.80;;;9.43;;
16512;SDS011;8369;48.030;11.598;2023-03-05T11:20:28;20.30;;;9.77;;
16512;SDS011;8369;48.030;11.598;2023-03-05T11:28:18;20.83;;;9.97;;
16512;SDS011;8369;48.030;11.598;2023-03-05T11:31:06;18.60;;;9.80;;
16512;SDS011;8369;48.030;11.598;2023-03-05T11:33:52;14.93;;;7.77;;
16512;SDS011;8369;48.030;11.598;2023-03-05T11:36:36;18.97;;;9.00;;
16512;SDS011;8369;48.030;11.598;2023-03-05T11:41:36;17.43;;;8.50;;
16512;SDS011;8369;48.030;11.598;2023-03-05T11:44:20;16.63;;;7.93;;
16512;SDS011;8369;48.030;11.598;2023-03-05T11:49:48;17.17;;;8.60;;
16512;SDS011;8369;48.030;11.598;2023-03-05T11:52:27;14.63;;;8.60;;
16512;SDS011;8369;48.030;11.598;2023-03-05T12:00:29;16.87;;;8.93;;
16512;SDS011;8369;48.030;11.598;2023-03-05T12:02:58;16.03;;;8.10;;
16512;SDS011;8369;48.030;11.598;2023-03-05T12:05:28;17.30;;;9.50;;
16512;SDS011;8369;48.030;11.598;2023-03-05T12:07:57;15.67;;;8.40;;
16512;SDS011;8369;48.030;11.598;2023-03-05T12:10:25;19.13;;;9.00;;
16512;SDS011;8369;48.030;11.598;2023-03-05T12:15:45;14.67;;;8.60;;
16512;SDS011;8369;48.030;11.598;2023-03-05T12:23:57;18.97;;;8.90;;
16512;SDS011;8369;48.030;11.598;2023-03-05T12:27:12;20.20;;;9.03;;
16512;SDS011;8369;48.030;11.598;2023-03-05T12:34:48;15.30;;;8.53;;
16512;SDS011;8369;48.030;11.598;2023-03-05T12:47:44;16.07;;;8.80;;
16512;SDS011;8369;48.030;11.598;2023-03-05T12:52:56;18.20;;;9.63;;
16512;SDS011;8369;48.030;11.598;2023-03-05T13:00:44;16.93;;;8.63;;
16512;SDS011;8369;48.030;11.598;2023-03-05T13:03:17;15.57;;;8.40;;
16512;SDS011;8369;48.030;11.598;2023-03-05T13:05:50;18.10;;;8.70;;
16512;SDS011;8369;48.030;11.598;2023-03-05T13:08:20;16.57;;;8.47;;
16512;SDS011;8369;48.030;11.598;2023-03-05T13:13:16;12.70;;;7.20;;
16512;SDS011;8369;48.030;11.598;2023-03-05T13:15:47;11.43;;;7.40;;
16512;SDS011;8369;48.030;11.598;2023-03-05T13:18:21;13.23;;;7.10;;
16512;SDS011;8369;48.030;11.598;2023-03-05T13:21:00;11.97;;;6.97;;
16512;SDS011;8369;48.030;11.598;2023-03-05T13:23:29;18.77;;;6.43;;
16512;SDS011;8369;48.030;11.598;2023-03-05T13:25:56;11.53;;;6.53;;
16512;SDS011;8369;48.030;11.598;2023-03-05T13:28:24;12.40;;;6.77;;
16512;SDS011;8369;48.030;11.598;2023-03-05T13:30:51;10.77;;;6.07;;
16512;SDS011;8369;48.030;11.598;2023-03-05T13:33:40;10.83;;;5.93;;
16512;SDS011;8369;48.030;11.598;2023-03-05T13:36:20;12.27;;;6.57;;
16512;SDS011;8369;48.030;11.598;2023-03-05T13:38:47;9.27;;;5.93;;
16512;SDS011;8369;48.030;11.598;2023-03-05T13:46:49;11.57;;;6.77;;
16512;SDS011;8369;48.030;11.598;2023-03-05T13:49:25;10.83;;;6.80;;
16512;SDS011;8369;48.030;11.598;2023-03-05T13:51:54;15.17;;;6.97;;
16512;SDS011;8369;48.030;11.598;2023-03-05T13:54:22;10.70;;;5.80;;
16512;SDS011;8369;48.030;11.598;2023-03-05T13:56:53;11.60;;;6.23;;
16512;SDS011;8369;48.030;11.598;2023-03-05T13:59:23;12.80;;;6.80;;
16512;SDS011;8369;48.030;11.598;2023-03-05T14:01:53;12.10;;;6.33;;
16512;SDS011;8369;48.030;11.598;2023-03-05T14:06:58;10.37;;;6.20;;
16512;SDS011;8369;48.030;11.598;2023-03-05T14:09:41;10.13;;;5.87;;
16512;SDS011;8369;48.030;11.598;2023-03-05T14:14:59;13.33;;;6.90;;
16512;SDS011;8369;48.030;11.598;2023-03-05T14:22:53;11.37;;;6.33;;
16512;SDS011;8369;48.030;11.598;2023-03-05T14:25:34;14.10;;;6.40;;
16512;SDS011;8369;48.030;11.598;2023-03-05T14:28:06;14.90;;;7.67;;
16512;SDS011;8369;48.030;11.598;2023-03-05T14:30:32;11.90;;;6.40;;
16512;SDS011;8369;48.030;11.598;2023-03-05T14:33:00;11.30;;;6.37;;
16512;SDS011;8369;48.030;11.598;2023-03-05T14:35:27;10.73;;;6.20;;
16512;SDS011;8369;48.030;11.598;2023-03-05T14:37:55;10.23;;;5.67;;
16512;SDS011;8369;48.030;11.598;2023-03-05T14:40:27;11.67;;;6.57;;
16512;SDS011;8369;48.030;11.598;2023-03-05T14:43:02;12.73;;;6.53;;
16512;SDS011;8369;48.030;11.598;2023-03-05T14:45:31;14.90;;;7.40;;
16512;SDS011;8369;48.030;11.598;2023-03-05T14:47:59;12.10;;;6.90;;
16512;SDS011;8369;48.030;11.598;2023-03-05T14:50:28;13.17;;;6.90;;
16512;SDS011;8369;48.030;11.598;2023-03-05T14:53:16;15.27;;;6.93;;
16512;SDS011;8369;48.030;11.598;2023-03-05T14:55:46;15.33;;;7.47;;
16512;SDS011;8369;48.030;11.598;2023-03-05T14:58:19;14.93;;;7.30;;
16512;SDS011;8369;48.030;11.598;2023-03-05T15:00:49;13.83;;;7.10;;
16512;SDS011;8369;48.030;11.598;2023-03-05T15:03:16;13.53;;;6.73;;
16512;SDS011;8369;48.030;11.598;2023-03-05T15:05:43;13.50;;;7.83;;
16512;SDS011;8369;48.030;11.598;2023-03-05T15:08:16;13.60;;;7.80;;
16512;SDS011;8369;48.030;11.598;2023-03-05T15:10:53;11.83;;;6.60;;
16512;SDS011;8369;48.030;11.598;2023-03-05T15:13:20;11.57;;;7.30;;
16512;SDS011;8369;48.030;11.598;2023-03-05T15:15:47;11.27;;;6.10;;
16512;SDS011;8369;48.030;11.598;2023-03-05T15:18:15;9.97;;;6.00;;
16512;SDS011;8369;48.030;11.598;2023-03-05T15:20:43;12.47;;;6.43;;
16512;SDS011;8369;48.030;11.598;2023-03-05T15:23:10;13.57;;;6.53;;
16512;SDS011;8369;48.030;11.598;2023-03-05T15:25:37;10.63;;;5.83;;
16512;SDS011;8369;48.030;11.598;2023-03-05T15:28:03;15.10;;;7.53;;
16512;SDS011;8369;48.030;11.598;2023-03-05T15:30:30;10.23;;;6.50;;
16512;SDS011;8369;48.030;11.598;2023-03-05T15:33:06;13.67;;;6.93;;
16512;SDS011;8369;48.030;11.598;2023-03-05T15:35:34;17.27;;;7.43;;
16512;SDS011;8369;48.030;11.598;2023-03-05T15:38:00;15.18;;;8.45;;
16512;SDS011;8369;48.030;11.598;2023-03-05T15:40:26;15.87;;;8.00;;
16512;SDS011;8369;48.030;11.598;2023-03-05T15:42:54;12.63;;;6.87;;
16512;SDS011;8369;48.030;11.598;2023-03-05T15:45:20;15.13;;;8.13;;
16512;SDS011;8369;48.030;11.598;2023-03-05T15:47:47;13.77;;;7.20;;
16512;SDS011;8369;48.030;11.598;2023-03-05T15:50:14;11.63;;;7.57;;
16512;SDS011;8369;48.030;11.598;2023-03-05T15:52:40;15.70;;;7.73;;
16512;SDS011;8369;48.030;11.598;2023-03-05T15:55:07;14.57;;;7.90;;
16512;SDS011;8369;48.030;11.598;2023-03-05T15:57:37;13.60;;;7.33;;
16512;SDS011;8369;48.030;11.598;2023-03-05T16:00:08;14.27;;;7.60;;
16512;SDS011;8369;48.030;11.598;2023-03-05T16:02:35;13.87;;;7.67;;
16512;SDS011;8369;48.030;11.598;2023-03-05T16:05:01;13.50;;;7.43;;
16512;SDS011;8369;48.030;11.598;2023-03-05T16:07:28;14.37;;;7.93;;
16512;SDS011;8369;48.030;11.598;2023-03-05T16:09:55;16.23;;;7.83;;
16512;SDS011;8369;48.030;11.598;2023-03-05T16:12:24;14.83;;;7.80;;
16512;SDS011;8369;48.030;11.598;2023-03-05T16:14:52;17.77;;;8.63;;
16512;SDS011;8369;48.030;11.598;2023-03-05T16:17:19;15.53;;;7.67;;
16512;SDS011;8369;48.030;11.598;2023-03-05T16:19:48;14.27;;;7.40;;
16512;SDS011;8369;48.030;11.598;2023-03-05T16:22:16;13.90;;;7.63;;
16512;SDS011;8369;48.030;11.598;2023-03-05T16:24:42;15.83;;;8.87;;
16512;SDS011;8369;48.030;11.598;2023-03-05T16:27:08;14.73;;;7.87;;
16512;SDS011;8369;48.030;11.598;2023-03-05T16:29:35;13.30;;;7.57;;
16512;SDS011;8369;48.030;11.598;2023-03-05T16:32:01;14.77;;;7.87;;